sensor_id;sensor_type;location;lat;lon;timestamp;temperature;humidity
13205;DHT22;6667;52.634;9.226;2022-10-31T08:01:27;12.00;99.90
13205;DHT22;6667;52.634;9.226;2022-10-31T08:03:54;12.00;99.90
13205;DHT22;6667;52.634;9.226;2022-10-31T08:06:21;12.10;99.90
13205;DHT22;6667;52.634;9.226;2022-10-31T08:08:47;12.20;99.90
13205;DHT22;6667;52.634;9.226;2022-10-31T08:11:14;12.30;99.90
13205;DHT22;6667;52.634;9.226;2022-10-31T08:13:41;12.40;99.90
13205;DHT22;6667;52.634;9.226;2022-10-31T08:16:08;12.40;99.90
13205;DHT22;6667;52.634;9.226;2022-10-31T08:18:36;12.50;99.90
13205;DHT22;6667;52.634;9.226;2022-10-31T08:21:03;12.60;99.90
13205;DHT22;6667;52.634;9.226;2022-10-31T08:23:30;12.70;99.90
13205;DHT22;6667;52.634;9.226;2022-10-31T08:25:57;12.70;99.90
13205;DHT22;6667;52.634;9.226;2022-10-31T08:28:24;12.80;99.90
13205;DHT22;6667;52.634;9.226;2022-10-31T08:30:50;12.80;99.90
13205;DHT22;6667;52.634;9.226;2022-10-31T08:33:18;12.80;99.90
13205;DHT22;6667;52.634;9.226;2022-10-31T08:35:46;13.00;99.90
13205;DHT22;6667;52.634;9.226;2022-10-31T08:38:13;13.00;99.90
13205;DHT22;6667;52.634;9.226;2022-10-31T08:40:40;13.10;99.90
13205;DHT22;6667;52.634;9.226;2022-10-31T08:43:11;13.20;99.90
13205;DHT22;6667;52.634;9.226;2022-10-31T08:45:38;13.30;99.90
13205;DHT22;6667;52.634;9.226;2022-10-31T08:48:09;13.50;99.90
13205;DHT22;6667;52.634;9.226;2022-10-31T08:50:36;13.50;99.90
13205;DHT22;6667;52.634;9.226;2022-10-31T08:53:06;13.50;99.90
13205;DHT22;6667;52.634;9.226;2022-10-31T08:55:34;13.60;99.90
13205;DHT22;6667;52.634;9.226;2022-10-31T08:58:02;13.60;99.90
13205;DHT22;6667;52.634;9.226;2022-10-31T09:00:29;13.60;99.90
13205;DHT22;6667;52.634;9.226;2022-10-31T09:02:56;13.70;99.90
13205;DHT22;6667;52.634;9.226;2022-10-31T09:05:24;13.70;99.90
13205;DHT22;6667;52.634;9.226;2022-10-31T09:07:52;13.70;99.90
13205;DHT22;6667;52.634;9.226;2022-10-31T09:10:23;13.70;99.90
13205;DHT22;6667;52.634;9.226;2022-10-31T09:12:54;13.60;99.90
13205;DHT22;6667;52.634;9.226;2022-10-31T09:15:21;13.70;99.90
13205;DHT22;6667;52.634;9.226;2022-10-31T09:17:48;13.90;99.90
13205;DHT22;6667;52.634;9.226;2022-10-31T09:20:15;14.10;99.90
13205;DHT22;6667;52.634;9.226;2022-10-31T09:22:42;14.20;99.90
13205;DHT22;6667;52.634;9.226;2022-10-31T09:25:09;14.30;99.90
13205;DHT22;6667;52.634;9.226;2022-10-31T09:27:37;14.70;99.90
13205;DHT22;6667;52.634;9.226;2022-10-31T09:30:05;15.00;99.90
13205;DHT22;6667;52.634;9.226;2022-10-31T09:32:31;14.90;99.90
13205;DHT22;6667;52.634;9.226;2022-10-31T09:34:58;15.20;99.90
13205;DHT22;6667;52.634;9.226;2022-10-31T09:37:25;15.40;99.90
13205;DHT22;6667;52.634;9.226;2022-10-31T09:39:51;15.70;99.90
13205;DHT22;6667;52.634;9.226;2022-10-31T09:42:35;16.10;99.90
13205;DHT22;6667;52.634;9.226;2022-10-31T09:45:10;16.40;99.90
13205;DHT22;6667;52.634;9.226;2022-10-31T09:47:48;16.40;99.90
13205;DHT22;6667;52.634;9.226;2022-10-31T09:50:21;16.50;99.90
13205;DHT22;6667;52.634;9.226;2022-10-31T09:52:54;16.70;99.90
13205;DHT22;6667;52.634;9.226;2022-10-31T09:55:27;16.80;99.90
13205;DHT22;6667;52.634;9.226;2022-10-31T09:57:58;16.90;99.90
13205;DHT22;6667;52.634;9.226;2022-10-31T10:00:27;16.60;99.90
13205;DHT22;6667;52.634;9.226;2022-10-31T10:02:57;16.60;99.90
13205;DHT22;6667;52.634;9.226;2022-10-31T10:05:29;16.60;99.90
13205;DHT22;6667;52.634;9.226;2022-10-31T10:08:03;16.80;99.90
13205;DHT22;6667;52.634;9.226;2022-10-31T10:10:44;16.90;99.90
13205;DHT22;6667;52.634;9.226;2022-10-31T10:13:40;16.90;99.90
13205;DHT22;6667;52.634;9.226;2022-10-31T10:16:28;16.90;99.90
13205;DHT22;6667;52.634;9.226;2022-10-31T10:19:10;17.00;99.90
13205;DHT22;6667;52.634;9.226;2022-10-31T10:21:47;17.00;99.90
13205;DHT22;6667;52.634;9.226;2022-10-31T10:24:27;17.00;99.90
13205;DHT22;6667;52.634;9.226;2022-10-31T10:27:05;17.10;99.90
13205;DHT22;6667;52.634;9.226;2022-10-31T10:29:40;17.20;99.90
13205;DHT22;6667;52.634;9.226;2022-10-31T10:32:17;17.20;99.90
13205;DHT22;6667;52.634;9.226;2022-10-31T10:34:49;17.20;99.90
13205;DHT22;6667;52.634;9.226;2022-10-31T10:37:24;16.80;99.90
13205;DHT22;6667;52.634;9.226;2022-10-31T10:39:55;16.90;99.90
13205;DHT22;6667;52.634;9.226;2022-10-31T10:42:25;17.10;99.90
13205;DHT22;6667;52.634;9.226;2022-10-31T10:45:15;17.20;99.90
13205;DHT22;6667;52.634;9.226;2022-10-31T10:48:06;17.20;99.90
13205;DHT22;6667;52.634;9.226;2022-10-31T10:50:39;17.30;99.90
13205;DHT22;6667;52.634;9.226;2022-10-31T10:53:15;17.30;99.90
13205;DHT22;6667;52.634;9.226;2022-10-31T10:55:52;17.20;99.90
13205;DHT22;6667;52.634;9.226;2022-10-31T10:58:21;17.40;99.90
13205;DHT22;6667;52.634;9.226;2022-10-31T11:00:48;17.30;99.90
13205;DHT22;6667;52.634;9.226;2022-10-31T11:03:18;17.30;99.90
13205;DHT22;6667;52.634;9.226;2022-10-31T11:05:48;17.20;99.90
13205;DHT22;6667;52.634;9.226;2022-10-31T11:08:23;17.50;99.90
13205;DHT22;6667;52.634;9.226;2022-10-31T11:10:57;17.60;99.90
13205;DHT22;6667;52.634;9.226;2022-10-31T11:13:25;17.70;99.90
13205;DHT22;6667;52.634;9.226;2022-10-31T11:15:58;17.80;99.90
13205;DHT22;6667;52.634;9.226;2022-10-31T11:18:29;17.90;99.90
13205;DHT22;6667;52.634;9.226;2022-10-31T11:20:58;17.80;99.90
13205;DHT22;6667;52.634;9.226;2022-10-31T11:23:26;17.80;99.90
13205;DHT22;6667;52.634;9.226;2022-10-31T11:25:56;17.80;99.90
13205;DHT22;6667;52.634;9.226;2022-10-31T11:28:23;18.10;99.90
13205;DHT22;6667;52.634;9.226;2022-10-31T11:30:52;18.20;99.90
13205;DHT22;6667;52.634;9.226;2022-10-31T11:33:24;18.00;99.90
13205;DHT22;6667;52.634;9.226;2022-10-31T11:35:54;18.20;99.90
13205;DHT22;6667;52.634;9.226;2022-10-31T11:38:24;18.40;99.90
13205;DHT22;6667;52.634;9.226;2022-10-31T11:40:53;18.50;99.90
13205;DHT22;6667;52.634;9.226;2022-10-31T11:43:20;18.40;99.90
13205;DHT22;6667;52.634;9.226;2022-10-31T11:45:47;18.40;99.90
13205;DHT22;6667;52.634;9.226;2022-10-31T11:48:17;18.20;99.90
13205;DHT22;6667;52.634;9.226;2022-10-31T11:50:49;18.40;99.90
13205;DHT22;6667;52.634;9.226;2022-10-31T11:53:22;18.10;99.90
13205;DHT22;6667;52.634;9.226;2022-10-31T11:56:02;18.40;99.90
13205;DHT22;6667;52.634;9.226;2022-10-31T11:58:29;18.50;99.90
13205;DHT22;6667;52.634;9.226;2022-10-31T12:00:57;18.80;99.90
13205;DHT22;6667;52.634;9.226;2022-10-31T12:03:33;18.60;99.90
13205;DHT22;6667;52.634;9.226;2022-10-31T12:06:09;18.70;99.90
13205;DHT22;6667;52.634;9.226;2022-10-31T12:08:39;18.40;99.90
13205;DHT22;6667;52.634;9.226;2022-10-31T12:11:15;18.20;99.90
13205;DHT22;6667;52.634;9.226;2022-10-31T12:13:57;18.40;99.90
13205;DHT22;6667;52.634;9.226;2022-10-31T12:16:30;18.60;99.90
13205;DHT22;6667;52.634;9.226;2022-10-31T12:19:04;18.30;99.90
13205;DHT22;6667;52.634;9.226;2022-10-31T12:21:52;18.20;99.90
13205;DHT22;6667;52.634;9.226;2022-10-31T12:24:32;18.10;99.90
13205;DHT22;6667;52.634;9.226;2022-10-31T12:27:13;18.20;99.90
13205;DHT22;6667;52.634;9.226;2022-10-31T12:29:54;18.00;99.90
13205;DHT22;6667;52.634;9.226;2022-10-31T12:32:35;18.00;99.90
13205;DHT22;6667;52.634;9.226;2022-10-31T12:35:18;18.20;99.90
13205;DHT22;6667;52.634;9.226;2022-10-31T12:38:01;18.00;99.90
13205;DHT22;6667;52.634;9.226;2022-10-31T12:40:46;18.10;99.90
13205;DHT22;6667;52.634;9.226;2022-10-31T12:43:28;17.70;99.90
13205;DHT22;6667;52.634;9.226;2022-10-31T12:46:00;17.80;99.90
13205;DHT22;6667;52.634;9.226;2022-10-31T12:48:49;17.70;99.90
13205;DHT22;6667;52.634;9.226;2022-10-31T12:51:24;17.90;99.90
13205;DHT22;6667;52.634;9.226;2022-10-31T12:54:10;18.00;99.90
13205;DHT22;6667;52.634;9.226;2022-10-31T12:56:47;17.90;99.90
13205;DHT22;6667;52.634;9.226;2022-10-31T12:59:20;17.50;99.90
13205;DHT22;6667;52.634;9.226;2022-10-31T13:01:50;17.30;99.90
13205;DHT22;6667;52.634;9.226;2022-10-31T13:04:34;17.40;99.90
13205;DHT22;6667;52.634;9.226;2022-10-31T13:07:05;17.60;99.90
13205;DHT22;6667;52.634;9.226;2022-10-31T13:09:36;17.70;99.90
13205;DHT22;6667;52.634;9.226;2022-10-31T13:12:09;17.80;99.90
13205;DHT22;6667;52.634;9.226;2022-10-31T13:14:39;17.80;99.90
13205;DHT22;6667;52.634;9.226;2022-10-31T13:17:13;17.80;99.90
13205;DHT22;6667;52.634;9.226;2022-10-31T13:19:43;17.70;99.90
13205;DHT22;6667;52.634;9.226;2022-10-31T13:22:15;17.40;99.90
13205;DHT22;6667;52.634;9.226;2022-10-31T13:24:47;17.60;99.90
13205;DHT22;6667;52.634;9.226;2022-10-31T13:27:22;17.50;99.90
13205;DHT22;6667;52.634;9.226;2022-10-31T13:29:58;17.50;99.90
13205;DHT22;6667;52.634;9.226;2022-10-31T13:32:30;17.40;99.90
13205;DHT22;6667;52.634;9.226;2022-10-31T13:35:03;17.40;99.90
13205;DHT22;6667;52.634;9.226;2022-10-31T13:37:36;17.50;99.90
13205;DHT22;6667;52.634;9.226;2022-10-31T13:40:17;17.50;99.90
13205;DHT22;6667;52.634;9.226;2022-10-31T13:42:53;17.50;99.90
13205;DHT22;6667;52.634;9.226;2022-10-31T13:45:23;17.60;99.90
13205;DHT22;6667;52.634;9.226;2022-10-31T13:47:59;17.50;99.90
13205;DHT22;6667;52.634;9.226;2022-10-31T13:50:27;17.50;99.90
13205;DHT22;6667;52.634;9.226;2022-10-31T13:53:11;17.60;99.90
13205;DHT22;6667;52.634;9.226;2022-10-31T13:55:41;17.50;99.90
13205;DHT22;6667;52.634;9.226;2022-10-31T13:58:24;17.20;99.90
13205;DHT22;6667;52.634;9.226;2022-10-31T14:00:59;16.80;99.90
13205;DHT22;6667;52.634;9.226;2022-10-31T14:03:28;17.00;99.90
13205;DHT22;6667;52.634;9.226;2022-10-31T14:05:56;16.90;99.90
13205;DHT22;6667;52.634;9.226;2022-10-31T14:08:23;17.00;99.90
13205;DHT22;6667;52.634;9.226;2022-10-31T14:10:52;17.00;99.90
13205;DHT22;6667;52.634;9.226;2022-10-31T14:13:23;16.90;99.90
13205;DHT22;6667;52.634;9.226;2022-10-31T14:15:54;16.80;99.90
13205;DHT22;6667;52.634;9.226;2022-10-31T14:18:24;16.60;99.90
13205;DHT22;6667;52.634;9.226;2022-10-31T14:20:51;16.40;99.90
13205;DHT22;6667;52.634;9.226;2022-10-31T14:23:34;16.30;99.90
13205;DHT22;6667;52.634;9.226;2022-10-31T14:26:14;16.30;99.90
13205;DHT22;6667;52.634;9.226;2022-10-31T14:28:44;16.20;99.90
13205;DHT22;6667;52.634;9.226;2022-10-31T14:31:28;16.10;99.90
13205;DHT22;6667;52.634;9.226;2022-10-31T14:33:57;16.10;99.90
13205;DHT22;6667;52.634;9.226;2022-10-31T14:36:28;16.00;99.90
13205;DHT22;6667;52.634;9.226;2022-10-31T14:39:00;16.00;99.90
13205;DHT22;6667;52.634;9.226;2022-10-31T14:41:41;15.90;99.90
13205;DHT22;6667;52.634;9.226;2022-10-31T14:44:34;15.90;99.90
13205;DHT22;6667;52.634;9.226;2022-10-31T14:47:14;15.90;99.90
13205;DHT22;6667;52.634;9.226;2022-10-31T14:52:53;15.80;99.90
13205;DHT22;6667;52.634;9.226;2022-10-31T14:55:21;15.80;99.90
13205;DHT22;6667;52.634;9.226;2022-10-31T14:57:52;15.70;99.90
13205;DHT22;6667;52.634;9.226;2022-10-31T15:00:22;15.70;99.90
13205;DHT22;6667;52.634;9.226;2022-10-31T15:02:58;15.60;99.90
13205;DHT22;6667;52.634;9.226;2022-10-31T15:05:30;15.60;99.90
13205;DHT22;6667;52.634;9.226;2022-10-31T15:07:58;15.60;99.90
13205;DHT22;6667;52.634;9.226;2022-10-31T15:10:27;15.50;99.90
13205;DHT22;6667;52.634;9.226;2022-10-31T15:12:55;15.50;99.90
13205;DHT22;6667;52.634;9.226;2022-10-31T15:15:24;15.50;99.90
13205;DHT22;6667;52.634;9.226;2022-10-31T15:17:54;15.40;99.90
13205;DHT22;6667;52.634;9.226;2022-10-31T15:20:23;15.40;99.90
13205;DHT22;6667;52.634;9.226;2022-10-31T15:22:52;15.30;99.90
13205;DHT22;6667;52.634;9.226;2022-10-31T15:25:22;15.30;99.90
13205;DHT22;6667;52.634;9.226;2022-10-31T15:27:50;15.30;99.90
13205;DHT22;6667;52.634;9.226;2022-10-31T15:30:19;15.20;99.90
13205;DHT22;6667;52.634;9.226;2022-10-31T15:32:48;15.20;99.90
13205;DHT22;6667;52.634;9.226;2022-10-31T15:35:23;15.10;99.90
13205;DHT22;6667;52.634;9.226;2022-10-31T15:37:51;15.10;99.90
13205;DHT22;6667;52.634;9.226;2022-10-31T15:40:20;15.10;99.90
13205;DHT22;6667;52.634;9.226;2022-10-31T15:42:51;15.10;99.90
13205;DHT22;6667;52.634;9.226;2022-10-31T15:45:20;15.10;99.90
13205;DHT22;6667;52.634;9.226;2022-10-31T15:47:54;15.10;99.90
13205;DHT22;6667;52.634;9.226;2022-10-31T15:50:26;15.00;99.90
13205;DHT22;6667;52.634;9.226;2022-10-31T15:52:54;14.90;99.90
13205;DHT22;6667;52.634;9.226;2022-10-31T15:55:22;15.00;99.90
13205;DHT22;6667;52.634;9.226;2022-10-31T15:57:52;14.90;99.90
13205;DHT22;6667;52.634;9.226;2022-10-31T16:00:24;14.90;99.90
13205;DHT22;6667;52.634;9.226;2022-10-31T16:03:04;14.90;99.90
13205;DHT22;6667;52.634;9.226;2022-10-31T16:05:36;14.90;99.90
13205;DHT22;6667;52.634;9.226;2022-10-31T16:08:04;14.80;99.90
13205;DHT22;6667;52.634;9.226;2022-10-31T16:10:33;14.80;99.90
13205;DHT22;6667;52.634;9.226;2022-10-31T16:13:01;14.80;99.90
13205;DHT22;6667;52.634;9.226;2022-10-31T16:15:28;14.70;99.90
13205;DHT22;6667;52.634;9.226;2022-10-31T16:17:56;14.70;99.90
13205;DHT22;6667;52.634;9.226;2022-10-31T16:20:26;14.70;99.90
13205;DHT22;6667;52.634;9.226;2022-10-31T16:22:55;14.70;99.90
13205;DHT22;6667;52.634;9.226;2022-10-31T16:25:28;14.70;99.90
13205;DHT22;6667;52.634;9.226;2022-10-31T16:28:01;14.70;99.90
13205;DHT22;6667;52.634;9.226;2022-10-31T16:30:35;14.70;99.90
13205;DHT22;6667;52.634;9.226;2022-10-31T16:33:04;14.70;99.90
13205;DHT22;6667;52.634;9.226;2022-10-31T16:35:34;14.70;99.90
13205;DHT22;6667;52.634;9.226;2022-10-31T16:38:02;14.60;99.90
13205;DHT22;6667;52.634;9.226;2022-10-31T16:40:29;14.70;99.90
13205;DHT22;6667;52.634;9.226;2022-10-31T16:42:57;14.60;99.90
13205;DHT22;6667;52.634;9.226;2022-10-31T16:45:25;14.70;99.90
13205;DHT22;6667;52.634;9.226;2022-10-31T16:47:52;14.60;99.90
13205;DHT22;6667;52.634;9.226;2022-10-31T16:50:21;14.60;99.90
13205;DHT22;6667;52.634;9.226;2022-10-31T16:52:50;14.60;99.90
13205;DHT22;6667;52.634;9.226;2022-10-31T16:55:18;14.60;99.90
13205;DHT22;6667;52.634;9.226;2022-10-31T16:57:47;14.60;99.90
13205;DHT22;6667;52.634;9.226;2022-10-31T17:00:16;14.60;99.90
13205;DHT22;6667;52.634;9.226;2022-10-31T17:02:45;14.60;99.90
13205;DHT22;6667;52.634;9.226;2022-10-31T17:05:14;14.60;99.90
13205;DHT22;6667;52.634;9.226;2022-10-31T17:07:41;14.60;99.90
13205;DHT22;6667;52.634;9.226;2022-10-31T17:10:11;14.60;99.90
13205;DHT22;6667;52.634;9.226;2022-10-31T17:12:40;14.60;99.90
13205;DHT22;6667;52.634;9.226;2022-10-31T17:15:14;14.60;99.90
13205;DHT22;6667;52.634;9.226;2022-10-31T17:17:42;14.60;99.90
13205;DHT22;6667;52.634;9.226;2022-10-31T17:20:17;14.60;99.90
13205;DHT22;6667;52.634;9.226;2022-10-31T17:22:44;14.60;99.90
13205;DHT22;6667;52.634;9.226;2022-10-31T17:25:15;14.60;99.90
13205;DHT22;6667;52.634;9.226;2022-10-31T17:27:42;14.60;99.90
13205;DHT22;6667;52.634;9.226;2022-10-31T17:30:10;14.60;99.90
13205;DHT22;6667;52.634;9.226;2022-10-31T17:32:37;14.60;99.90
13205;DHT22;6667;52.634;9.226;2022-10-31T17:35:04;14.60;99.90
13205;DHT22;6667;52.634;9.226;2022-10-31T17:37:31;14.50;99.90
13205;DHT22;6667;52.634;9.226;2022-10-31T17:39:58;14.50;99.90
13205;DHT22;6667;52.634;9.226;2022-10-31T17:42:26;14.60;99.90
13205;DHT22;6667;52.634;9.226;2022-10-31T17:44:52;14.60;99.90
13205;DHT22;6667;52.634;9.226;2022-10-31T17:47:19;14.60;99.90
13205;DHT22;6667;52.634;9.226;2022-10-31T17:49:46;14.60;99.90
13205;DHT22;6667;52.634;9.226;2022-10-31T17:52:12;14.60;99.90
13205;DHT22;6667;52.634;9.226;2022-10-31T17:54:39;14.60;99.90
13205;DHT22;6667;52.634;9.226;2022-10-31T17:57:06;14.50;99.90
13205;DHT22;6667;52.634;9.226;2022-10-31T17:59:34;14.60;99.90
13205;DHT22;6667;52.634;9.226;2022-10-31T18:02:00;14.50;99.90
13205;DHT22;6667;52.634;9.226;2022-10-31T18:04:33;14.50;99.90
13205;DHT22;6667;52.634;9.226;2022-10-31T18:06:59;14.60;99.90
13205;DHT22;6667;52.634;9.226;2022-10-31T18:09:26;14.50;99.90
13205;DHT22;6667;52.634;9.226;2022-10-31T18:11:53;14.50;99.90
13205;DHT22;6667;52.634;9.226;2022-10-31T18:14:20;14.50;99.90
13205;DHT22;6667;52.634;9.226;2022-10-31T18:16:49;14.50;99.90
13205;DHT22;6667;52.634;9.226;2022-10-31T18:19:16;14.60;99.90
13205;DHT22;6667;52.634;9.226;2022-10-31T18:21:44;14.50;99.90
13205;DHT22;6667;52.634;9.226;2022-10-31T18:24:11;14.60;99.90
13205;DHT22;6667;52.634;9.226;2022-10-31T18:26:37;14.60;99.90
13205;DHT22;6667;52.634;9.226;2022-10-31T18:29:04;14.60;99.90
13205;DHT22;6667;52.634;9.226;2022-10-31T18:31:31;14.60;99.90
13205;DHT22;6667;52.634;9.226;2022-10-31T18:33:59;14.60;99.90
13205;DHT22;6667;52.634;9.226;2022-10-31T18:36:26;14.60;99.90
13205;DHT22;6667;52.634;9.226;2022-10-31T18:38:53;14.50;99.90
13205;DHT22;6667;52.634;9.226;2022-10-31T18:41:19;14.60;99.90
13205;DHT22;6667;52.634;9.226;2022-10-31T18:43:46;14.50;99.90
13205;DHT22;6667;52.634;9.226;2022-10-31T18:46:14;14.50;99.90
13205;DHT22;6667;52.634;9.226;2022-10-31T18:48:42;14.60;99.90
13205;DHT22;6667;52.634;9.226;2022-10-31T18:51:12;14.50;99.90
13205;DHT22;6667;52.634;9.226;2022-10-31T18:53:42;14.50;99.90
13205;DHT22;6667;52.634;9.226;2022-10-31T18:56:10;14.50;99.90
13205;DHT22;6667;52.634;9.226;2022-10-31T18:58:36;14.50;99.90
13205;DHT22;6667;52.634;9.226;2022-10-31T19:01:07;14.40;99.90
13205;DHT22;6667;52.634;9.226;2022-10-31T19:03:34;14.50;99.90
13205;DHT22;6667;52.634;9.226;2022-10-31T19:06:01;14.40;99.90
13205;DHT22;6667;52.634;9.226;2022-10-31T19:08:30;14.40;99.90
13205;DHT22;6667;52.634;9.226;2022-10-31T19:11:02;14.40;99.90
13205;DHT22;6667;52.634;9.226;2022-10-31T19:13:30;14.40;99.90
13205;DHT22;6667;52.634;9.226;2022-10-31T19:16:03;14.40;99.90
13205;DHT22;6667;52.634;9.226;2022-10-31T19:18:30;14.30;99.90
13205;DHT22;6667;52.634;9.226;2022-10-31T19:20:56;14.30;99.90
13205;DHT22;6667;52.634;9.226;2022-10-31T19:23:23;14.30;99.90
13205;DHT22;6667;52.634;9.226;2022-10-31T19:25:51;14.30;99.90
13205;DHT22;6667;52.634;9.226;2022-10-31T19:28:18;14.30;99.90
13205;DHT22;6667;52.634;9.226;2022-10-31T19:30:52;14.30;99.90
13205;DHT22;6667;52.634;9.226;2022-10-31T19:33:18;14.30;99.90
13205;DHT22;6667;52.634;9.226;2022-10-31T19:35:45;14.30;99.90
13205;DHT22;6667;52.634;9.226;2022-10-31T19:38:12;14.30;99.90
13205;DHT22;6667;52.634;9.226;2022-10-31T19:40:39;14.30;99.90
13205;DHT22;6667;52.634;9.226;2022-10-31T19:43:07;14.20;99.90
13205;DHT22;6667;52.634;9.226;2022-10-31T19:45:34;14.20;99.90
13205;DHT22;6667;52.634;9.226;2022-10-31T19:48:00;14.20;99.90
13205;DHT22;6667;52.634;9.226;2022-10-31T19:50:27;14.20;99.90
13205;DHT22;6667;52.634;9.226;2022-10-31T19:52:54;14.20;99.90
13205;DHT22;6667;52.634;9.226;2022-10-31T19:55:21;14.20;99.90
13205;DHT22;6667;52.634;9.226;2022-10-31T19:57:48;14.20;99.90
13205;DHT22;6667;52.634;9.226;2022-10-31T20:00:16;14.20;99.90
13205;DHT22;6667;52.634;9.226;2022-10-31T20:02:43;14.20;99.90
13205;DHT22;6667;52.634;9.226;2022-10-31T20:05:09;14.20;99.90
13205;DHT22;6667;52.634;9.226;2022-10-31T20:07:36;14.10;99.90
13205;DHT22;6667;52.634;9.226;2022-10-31T20:10:03;14.10;99.90
13205;DHT22;6667;52.634;9.226;2022-10-31T20:12:31;14.00;99.90
13205;DHT22;6667;52.634;9.226;2022-10-31T20:14:58;14.00;99.90
13205;DHT22;6667;52.634;9.226;2022-10-31T20:17:26;14.00;99.90
13205;DHT22;6667;52.634;9.226;2022-10-31T20:19:53;14.00;99.90
13205;DHT22;6667;52.634;9.226;2022-10-31T20:22:19;14.00;99.90
13205;DHT22;6667;52.634;9.226;2022-10-31T20:24:46;14.00;99.90
13205;DHT22;6667;52.634;9.226;2022-10-31T20:27:13;14.00;99.90
13205;DHT22;6667;52.634;9.226;2022-10-31T20:29:39;14.00;99.90
13205;DHT22;6667;52.634;9.226;2022-10-31T20:32:06;14.00;99.90
13205;DHT22;6667;52.634;9.226;2022-10-31T20:34:34;14.00;99.90
13205;DHT22;6667;52.634;9.226;2022-10-31T20:37:01;14.00;99.90
13205;DHT22;6667;52.634;9.226;2022-10-31T20:39:28;14.00;99.90
13205;DHT22;6667;52.634;9.226;2022-10-31T20:41:56;14.00;99.90
13205;DHT22;6667;52.634;9.226;2022-10-31T20:44:23;14.00;99.90
13205;DHT22;6667;52.634;9.226;2022-10-31T20:46:50;14.00;99.90
13205;DHT22;6667;52.634;9.226;2022-10-31T20:49:16;14.00;99.90
13205;DHT22;6667;52.634;9.226;2022-10-31T20:51:44;14.00;99.90
13205;DHT22;6667;52.634;9.226;2022-10-31T20:54:12;13.90;99.90
13205;DHT22;6667;52.634;9.226;2022-10-31T20:56:39;14.00;99.90
13205;DHT22;6667;52.634;9.226;2022-10-31T20:59:05;14.00;99.90
13205;DHT22;6667;52.634;9.226;2022-10-31T21:01:32;14.00;99.90
13205;DHT22;6667;52.634;9.226;2022-10-31T21:04:00;13.90;99.90
13205;DHT22;6667;52.634;9.226;2022-10-31T21:06:28;13.90;99.90
13205;DHT22;6667;52.634;9.226;2022-10-31T21:08:56;13.90;99.90
13205;DHT22;6667;52.634;9.226;2022-10-31T21:11:24;13.90;99.90
13205;DHT22;6667;52.634;9.226;2022-10-31T21:13:52;14.00;99.90
13205;DHT22;6667;52.634;9.226;2022-10-31T21:16:21;14.00;99.90
13205;DHT22;6667;52.634;9.226;2022-10-31T21:18:49;14.00;99.90
13205;DHT22;6667;52.634;9.226;2022-10-31T21:21:18;14.00;99.90
